Time;durP1;ratioP1;P1;durP2;ratioP2;P2;SDS_P1;SDS_P2;PMS_P1;PMS_P2;Temp;Humidity;BMP_temperature;BMP_pressure;BME280_temperature;BME280_humidity;BME280_pressure;Samples;Min_cycle;Max_cycle;Signal;HPM_P1;HPM_P2
2021/08/14 00:01:05;;;;;;;13.60;11.32;;;20.00;66.80;;;;;;5056294;28;20036;-35
2021/08/14 00:03:30;;;;;;;23.67;21.55;;;20.00;66.80;;;;;;5055718;28;20477;-36
2021/08/14 00:05:57;;;;;;;14.27;12.90;;;19.90;66.80;;;;;;5055988;28;20109;-33
2021/08/14 00:08:22;;;;;;;14.50;11.93;;;19.90;66.90;;;;;;5055971;28;20259;-36
2021/08/14 00:10:48;;;;;;;12.30;9.52;;;19.90;67.00;;;;;;5055972;28;20116;-36
2021/08/14 00:13:14;;;;;;;23.15;19.67;;;19.90;67.00;;;;;;5055720;28;20090;-32
2021/08/14 00:15:39;;;;;;;14.77;12.27;;;19.80;67.10;;;;;;5055618;28;20052;-36
2021/08/14 00:18:05;;;;;;;17.60;15.73;;;19.80;67.20;;;;;;5055581;28;20029;-36
2021/08/14 00:20:31;;;;;;;18.05;14.82;;;19.80;67.30;;;;;;5055547;28;20037;-33
2021/08/14 00:22:59;;;;;;;15.68;11.77;;;19.80;67.30;;;;;;5055791;28;20423;-36
2021/08/14 00:25:28;;;;;;;20.00;16.05;;;19.70;67.30;;;;;;5055656;28;20040;-33
2021/08/14 00:27:54;;;;;;;14.80;13.38;;;19.70;67.50;;;;;;5055423;28;20037;-33
2021/08/14 00:30:20;;;;;;;14.45;12.70;;;19.70;67.40;;;;;;5055411;28;20036;-33
2021/08/14 00:32:46;;;;;;;15.70;9.32;;;19.70;67.40;;;;;;5055473;28;20033;-33
2021/08/14 00:35:12;;;;;;;9.85;7.97;;;19.60;67.30;;;;;;5055605;28;20025;-32
2021/08/14 00:37:38;;;;;;;19.60;17.55;;;19.60;67.40;;;;;;5055722;28;20064;-32
2021/08/14 00:40:05;;;;;;;17.45;15.65;;;19.60;67.40;;;;;;5055642;28;20029;-36
2021/08/14 00:42:31;;;;;;;12.98;11.68;;;19.60;67.60;;;;;;5055374;28;20444;-32
2021/08/14 00:45:00;;;;;;;17.38;15.73;;;19.60;67.50;;;;;;5055411;28;20029;-33
2021/08/14 00:47:26;;;;;;;18.25;16.40;;;19.50;67.50;;;;;;5055044;28;20025;-33
2021/08/14 00:49:54;;;;;;;15.95;13.13;;;19.50;67.60;;;;;;5055650;28;20416;-36
2021/08/14 00:52:20;;;;;;;15.20;13.60;;;19.50;67.60;;;;;;5057270;28;20060;-32
2021/08/14 00:54:46;;;;;;;16.25;10.45;;;19.50;67.60;;;;;;5059326;28;20037;-33
2021/08/14 00:57:14;;;;;;;17.55;11.98;;;19.40;67.60;;;;;;5058859;28;20116;-33
2021/08/14 00:59:40;;;;;;;20.08;17.27;;;19.40;67.80;;;;;;5059102;28;20067;-36
2021/08/14 01:02:07;;;;;;;14.73;13.23;;;19.40;67.90;;;;;;5058807;28;20325;-36
2021/08/14 01:04:32;;;;;;;14.40;12.60;;;19.40;67.90;;;;;;5058817;28;20037;-33
2021/08/14 01:06:59;;;;;;;18.50;13.65;;;19.40;67.90;;;;;;5058788;28;20045;-36
2021/08/14 01:09:28;;;;;;;17.05;15.38;;;19.30;67.90;;;;;;5058990;28;20368;-36
2021/08/14 01:12:03;;;;;;;16.20;11.43;;;19.30;67.90;;;;;;5058741;28;20040;-36
2021/08/14 01:14:31;;;;;;;18.83;14.85;;;19.30;67.90;;;;;;5058767;28;20025;-36
2021/08/14 01:16:56;;;;;;;13.13;11.73;;;19.30;68.00;;;;;;5059057;28;20053;-36
2021/08/14 01:19:23;;;;;;;18.35;16.50;;;19.30;68.10;;;;;;5058684;28;20052;-33
2021/08/14 01:21:52;;;;;;;18.75;14.95;;;19.30;68.10;;;;;;5058610;28;20041;-36
2021/08/14 01:24:22;;;;;;;16.27;13.27;;;19.20;68.10;;;;;;5058367;28;20041;-37
2021/08/14 01:26:49;;;;;;;17.55;13.43;;;19.20;68.20;;;;;;5058716;28;20055;-32
2021/08/14 01:29:15;;;;;;;15.95;13.50;;;19.20;68.30;;;;;;5058257;28;20428;-36
2021/08/14 01:31:41;;;;;;;18.40;14.50;;;19.20;68.30;;;;;;5058554;28;20033;-35
2021/08/14 01:34:07;;;;;;;20.80;17.20;;;19.20;68.40;;;;;;5057123;28;20116;-33
2021/08/14 01:36:33;;;;;;;14.20;10.88;;;19.20;68.40;;;;;;5058534;28;20063;-36
2021/08/14 01:39:04;;;;;;;18.63;16.10;;;19.10;68.40;;;;;;5058206;28;20032;-33
2021/08/14 01:41:29;;;;;;;15.27;12.45;;;19.10;68.50;;;;;;5058211;28;20341;-33
2021/08/14 01:43:55;;;;;;;19.48;17.52;;;19.10;68.50;;;;;;5057997;28;20029;-33
2021/08/14 01:46:22;;;;;;;18.80;13.75;;;19.00;68.60;;;;;;5058666;28;20036;-36
2021/08/14 01:48:48;;;;;;;12.95;10.40;;;19.00;68.70;;;;;;5058069;28;20044;-37
2021/08/14 01:51:13;;;;;;;16.98;11.05;;;19.00;68.70;;;;;;5058478;28;20033;-37
2021/08/14 01:53:45;;;;;;;15.95;14.10;;;19.00;68.80;;;;;;5056869;28;20029;-32
2021/08/14 01:56:11;;;;;;;14.60;10.73;;;19.00;69.00;;;;;;5058516;28;20313;-35
2021/08/14 01:58:37;;;;;;;14.77;12.13;;;18.90;69.00;;;;;;5057662;28;20029;-33
2021/08/14 02:01:02;;;;;;;13.20;10.15;;;18.90;69.00;;;;;;5058311;28;20021;-33
2021/08/14 02:03:28;;;;;;;16.60;13.00;;;18.90;69.10;;;;;;5056736;28;20029;-37
2021/08/14 02:05:54;;;;;;;13.70;9.80;;;18.90;69.20;;;;;;5058053;28;20036;-36
2021/08/14 02:08:19;;;;;;;13.45;10.82;;;18.80;69.20;;;;;;5057599;28;20032;-36
2021/08/14 02:10:45;;;;;;;18.63;12.57;;;18.80;69.20;;;;;;5058013;28;20025;-36
2021/08/14 02:13:10;;;;;;;14.05;12.43;;;18.80;69.20;;;;;;5057830;28;20431;-36
2021/08/14 02:15:36;;;;;;;16.52;13.00;;;18.80;69.20;;;;;;5057440;28;20056;-33
2021/08/14 02:18:02;;;;;;;18.88;11.02;;;18.80;69.20;;;;;;5057080;28;20051;-33
2021/08/14 02:20:27;;;;;;;19.15;16.27;;;18.80;69.30;;;;;;5057582;28;20274;-36
2021/08/14 02:22:53;;;;;;;14.07;10.65;;;18.80;69.30;;;;;;5057155;28;20041;-36
2021/08/14 02:25:19;;;;;;;15.32;11.68;;;18.80;69.40;;;;;;5057526;28;20033;-33
2021/08/14 02:27:45;;;;;;;19.05;17.15;;;18.80;69.50;;;;;;5057423;28;20079;-37
2021/08/14 02:30:12;;;;;;;20.17;18.13;;;18.80;69.60;;;;;;5057616;28;20390;-35
2021/08/14 02:32:38;;;;;;;15.95;13.20;;;18.80;69.80;;;;;;5057365;28;20051;-32
2021/08/14 02:35:04;;;;;;;17.90;16.23;;;18.80;69.90;;;;;;5057525;28;20111;-32
2021/08/14 02:37:30;;;;;;;13.10;10.75;;;18.80;70.80;;;;;;5056991;28;20041;-33
2021/08/14 02:39:55;;;;;;;16.65;13.50;;;18.80;70.30;;;;;;5057287;28;20058;-33
2021/08/14 02:42:21;;;;;;;14.10;11.57;;;18.80;70.50;;;;;;5056999;28;20041;-36
2021/08/14 02:44:47;;;;;;;17.45;14.98;;;18.80;70.80;;;;;;5057068;28;20275;-33
2021/08/14 02:47:13;;;;;;;17.67;12.98;;;18.80;71.00;;;;;;5056772;28;20032;-33
2021/08/14 02:49:38;;;;;;;18.08;12.95;;;18.80;71.00;;;;;;5056984;28;20052;-33
2021/08/14 02:52:04;;;;;;;18.98;16.70;;;18.80;71.10;;;;;;5057011;28;20067;-38
2021/08/14 02:54:30;;;;;;;19.20;13.45;;;18.90;71.10;;;;;;5056712;28;20080;-33
2021/08/14 02:56:55;;;;;;;17.17;13.55;;;18.90;71.00;;;;;;5056882;28;20044;-33
2021/08/14 02:59:21;;;;;;;17.60;14.18;;;18.90;71.00;;;;;;5056690;28;20025;-33
2021/08/14 03:01:47;;;;;;;16.73;13.52;;;18.90;71.00;;;;;;5056360;28;20025;-36
2021/08/14 03:04:12;;;;;;;32.45;29.48;;;19.00;71.00;;;;;;5056576;28;20052;-37
2021/08/14 03:06:38;;;;;;;16.85;13.63;;;19.00;71.20;;;;;;5056388;28;20025;-36
2021/08/14 03:09:05;;;;;;;18.15;15.80;;;19.10;71.00;;;;;;5056713;28;20071;-33
2021/08/14 03:11:31;;;;;;;14.43;12.75;;;19.10;71.00;;;;;;5056545;28;20321;-33
2021/08/14 03:13:56;;;;;;;17.92;12.02;;;19.10;71.10;;;;;;5056256;28;20021;-37
2021/08/14 03:16:22;;;;;;;16.95;14.57;;;19.20;71.10;;;;;;5056155;28;20049;-33
2021/08/14 03:18:48;;;;;;;19.05;16.77;;;19.20;71.00;;;;;;5056314;28;20044;-36
2021/08/14 03:21:13;;;;;;;22.33;13.98;;;19.20;71.00;;;;;;5056873;28;20021;-36
2021/08/14 03:23:39;;;;;;;15.20;11.57;;;19.20;71.00;;;;;;5056264;28;20040;-36
2021/08/14 03:26:05;;;;;;;20.83;14.93;;;19.20;71.00;;;;;;5056702;28;20356;-36
2021/08/14 03:28:30;;;;;;;15.45;13.48;;;19.30;71.10;;;;;;5056124;28;20025;-36
2021/08/14 03:30:56;;;;;;;16.17;11.57;;;19.30;71.20;;;;;;5056678;28;20044;-36
2021/08/14 03:33:21;;;;;;;21.10;12.27;;;19.30;71.30;;;;;;5056036;28;20025;-33
2021/08/14 03:35:47;;;;;;;20.70;14.80;;;19.30;71.30;;;;;;5056526;28;20025;-32
2021/08/14 03:38:13;;;;;;;15.73;13.85;;;19.30;71.40;;;;;;5056135;28;20043;-37
2021/08/14 03:40:38;;;;;;;17.50;11.73;;;19.30;71.50;;;;;;5056376;28;20029;-36
2021/08/14 03:43:04;;;;;;;23.65;21.15;;;19.30;71.40;;;;;;5055940;28;20033;-33
2021/08/14 03:45:30;;;;;;;15.10;11.40;;;19.40;71.40;;;;;;5056187;28;20032;-33
2021/08/14 03:47:55;;;;;;;21.88;17.77;;;19.40;71.30;;;;;;5055802;28;20025;-37
2021/08/14 03:50:21;;;;;;;19.23;16.15;;;19.40;71.50;;;;;;5056163;28;20083;-37
2021/08/14 03:52:46;;;;;;;19.63;14.88;;;19.40;71.70;;;;;;5055978;28;20298;-34
2021/08/14 03:55:12;;;;;;;20.70;17.20;;;19.40;71.90;;;;;;5055969;28;20028;-36
2021/08/14 03:57:38;;;;;;;22.85;19.42;;;19.40;72.10;;;;;;5055957;28;20272;-34
2021/08/14 04:00:05;;;;;;;16.23;13.65;;;19.50;72.50;;;;;;5056031;28;20082;-33
2021/08/14 04:02:31;;;;;;;17.75;14.15;;;19.50;72.60;;;;;;5055463;28;20037;-36
2021/08/14 04:04:56;;;;;;;17.42;13.75;;;19.60;72.50;;;;;;5055827;28;20333;-36
2021/08/14 04:07:22;;;;;;;13.73;11.32;;;19.60;72.50;;;;;;5055871;28;20321;-33
2021/08/14 04:09:48;;;;;;;24.58;22.20;;;19.70;72.50;;;;;;5055946;28;20290;-33
2021/08/14 04:12:13;;;;;;;19.88;12.85;;;19.80;72.30;;;;;;5055518;28;20032;-33
2021/08/14 04:14:39;;;;;;;19.45;12.38;;;19.80;72.30;;;;;;5055464;28;20031;-37
2021/08/14 04:17:05;;;;;;;14.68;11.52;;;19.90;72.30;;;;;;5055857;28;20040;-36
2021/08/14 04:19:31;;;;;;;20.25;12.90;;;19.90;72.20;;;;;;5055785;28;20474;-33
2021/08/14 04:21:56;;;;;;;17.67;11.45;;;20.00;72.30;;;;;;5055234;28;20334;-37
2021/08/14 04:24:22;;;;;;;17.08;11.82;;;20.00;72.20;;;;;;5055300;28;20094;-33
2021/08/14 04:26:48;;;;;;;112.57;19.05;;;20.00;72.00;;;;;;5056451;28;20094;-36
2021/08/14 04:29:13;;;;;;;19.63;13.20;;;20.10;71.90;;;;;;5059477;28;20032;-36
2021/08/14 04:31:39;;;;;;;15.82;10.63;;;20.20;71.90;;;;;;5059548;28;20052;-36
2021/08/14 04:34:05;;;;;;;15.90;13.13;;;20.20;71.70;;;;;;5059274;28;20104;-36
2021/08/14 04:36:31;;;;;;;14.27;11.15;;;20.30;71.70;;;;;;5059304;28;20124;-33
2021/08/14 04:38:56;;;;;;;14.50;12.35;;;20.40;71.60;;;;;;5059369;28;20029;-33
2021/08/14 04:41:22;;;;;;;11.82;9.60;;;20.40;71.40;;;;;;5059603;28;20388;-36
2021/08/14 04:43:48;;;;;;;12.77;10.18;;;20.50;71.40;;;;;;5059021;28;20084;-33
2021/08/14 04:46:14;;;;;;;13.55;10.50;;;20.60;71.20;;;;;;5059442;28;20040;-33
2021/08/14 04:48:39;;;;;;;14.95;13.00;;;20.60;70.90;;;;;;5059133;28;20036;-37
2021/08/14 04:51:05;;;;;;;16.20;12.35;;;20.70;70.70;;;;;;5055272;28;20032;-33
2021/08/14 04:53:31;;;;;;;14.60;10.43;;;20.80;70.50;;;;;;5058916;28;20031;-37
2021/08/14 04:55:56;;;;;;;13.38;8.52;;;20.90;70.50;;;;;;5059052;28;20033;-33
2021/08/14 04:58:22;;;;;;;11.15;8.65;;;21.00;69.90;;;;;;5058763;28;20186;-37
2021/08/14 05:00:48;;;;;;;11.73;9.40;;;21.10;69.50;;;;;;5058704;28;20112;-33
2021/08/14 05:03:16;;;;;;;13.70;9.88;;;21.20;69.20;;;;;;5058119;28;20061;-37
2021/08/14 05:05:43;;;;;;;10.05;8.18;;;21.30;68.90;;;;;;5058449;28;20108;-37
2021/08/14 05:08:09;;;;;;;12.65;8.05;;;21.40;68.70;;;;;;5058329;28;20033;-33
2021/08/14 05:10:34;;;;;;;12.50;11.43;;;21.40;68.40;;;;;;5058247;28;20029;-34
2021/08/14 05:13:00;;;;;;;10.68;7.80;;;21.40;68.30;;;;;;5058207;28;20033;-37
2021/08/14 05:15:25;;;;;;;10.48;7.47;;;21.50;68.20;;;;;;5057918;28;20053;-33
2021/08/14 05:17:51;;;;;;;11.98;7.63;;;21.50;67.90;;;;;;5058482;28;20079;-34
2021/08/14 05:20:17;;;;;;;9.30;7.00;;;21.60;67.70;;;;;;5058313;28;20298;-37
2021/08/14 05:22:42;;;;;;;10.05;7.22;;;21.60;67.60;;;;;;5058356;28;20098;-33
2021/08/14 05:25:08;;;;;;;11.77;9.43;;;21.60;67.20;;;;;;5058022;28;20040;-33
2021/08/14 05:27:34;;;;;;;11.48;8.40;;;21.70;67.10;;;;;;5058483;28;20037;-36
2021/08/14 05:30:00;;;;;;;10.38;7.25;;;21.70;67.10;;;;;;5058268;28;20090;-33
2021/08/14 05:32:25;;;;;;;7.85;6.90;;;21.80;67.00;;;;;;5057997;28;20033;-34
2021/08/14 05:34:51;;;;;;;16.33;9.20;;;21.80;66.80;;;;;;5058292;28;20064;-38
2021/08/14 05:37:17;;;;;;;9.93;6.65;;;21.80;67.00;;;;;;5057897;28;20037;-37
2021/08/14 05:39:42;;;;;;;12.00;8.52;;;21.90;67.10;;;;;;5058126;28;20063;-36
2021/08/14 05:42:08;;;;;;;11.55;7.40;;;22.00;67.30;;;;;;5057690;28;20039;-36
2021/08/14 05:44:34;;;;;;;11.57;7.32;;;22.00;67.10;;;;;;5057838;28;20164;-33
2021/08/14 05:46:59;;;;;;;8.40;6.88;;;22.00;67.00;;;;;;5057656;28;20052;-37
2021/08/14 05:49:25;;;;;;;9.68;6.20;;;22.10;66.60;;;;;;5057873;28;20021;-33
2021/08/14 05:51:51;;;;;;;7.60;5.75;;;22.10;66.40;;;;;;5057576;28;20029;-37
2021/08/14 05:54:17;;;;;;;10.73;5.75;;;22.20;66.30;;;;;;5057850;28;20405;-33
2021/08/14 05:56:42;;;;;;;8.65;6.63;;;22.20;65.80;;;;;;5057791;28;20091;-37
2021/08/14 05:59:08;;;;;;;12.00;6.95;;;22.20;66.00;;;;;;5057933;28;20035;-33
2021/08/14 06:01:34;;;;;;;8.88;6.45;;;22.30;66.00;;;;;;5057114;28;20029;-33
2021/08/14 06:04:00;;;;;;;11.82;6.45;;;22.30;65.40;;;;;;5057409;28;20112;-37
2021/08/14 06:06:25;;;;;;;10.10;7.25;;;22.40;64.60;;;;;;5058018;28;20052;-36
2021/08/14 06:08:51;;;;;;;6.57;5.95;;;22.40;64.20;;;;;;5057444;28;20036;-36
2021/08/14 06:11:16;;;;;;;8.32;7.38;;;22.40;64.30;;;;;;5057827;28;20021;-33
2021/08/14 06:13:42;;;;;;;10.05;5.95;;;22.50;63.90;;;;;;5057269;28;20056;-36
2021/08/14 06:16:10;;;;;;;7.03;5.88;;;22.50;64.10;;;;;;5057088;28;20491;-33
2021/08/14 06:18:40;;;;;;;13.15;6.15;;;22.60;63.90;;;;;;5056895;28;20041;-33
2021/08/14 06:21:09;;;;;;;6.50;4.97;;;22.60;64.10;;;;;;5057283;28;20033;-33
2021/08/14 06:23:35;;;;;;;10.93;8.30;;;22.60;63.10;;;;;;5056200;28;20055;-33
2021/08/14 06:26:01;;;;;;;8.82;6.93;;;22.70;62.80;;;;;;5057141;28;20033;-36
2021/08/14 06:28:26;;;;;;;10.60;6.60;;;22.70;63.10;;;;;;5056836;28;20108;-33
2021/08/14 06:30:52;;;;;;;7.55;5.80;;;22.70;63.10;;;;;;5057119;28;20028;-33
2021/08/14 06:33:18;;;;;;;7.82;6.32;;;22.80;62.60;;;;;;5056860;28;20070;-33
2021/08/14 06:35:43;;;;;;;7.78;6.97;;;22.80;62.70;;;;;;5057239;28;20079;-33
2021/08/14 06:38:09;;;;;;;8.15;5.53;;;22.80;63.30;;;;;;5057105;28;20037;-34
2021/08/14 06:40:35;;;;;;;9.82;6.53;;;22.90;63.20;;;;;;5057127;28;20033;-37
2021/08/14 06:43:00;;;;;;;9.55;6.22;;;22.90;62.60;;;;;;5056839;28;20029;-33
2021/08/14 06:45:26;;;;;;;6.80;6.10;;;23.00;62.60;;;;;;5056871;28;20094;-33
2021/08/14 06:47:52;;;;;;;10.75;6.07;;;23.00;62.20;;;;;;5056640;28;20443;-34
2021/08/14 06:50:18;;;;;;;6.93;6.25;;;23.10;62.00;;;;;;5055992;28;20035;-37
2021/08/14 06:52:44;;;;;;;8.43;6.47;;;23.10;61.90;;;;;;5056718;28;20103;-33
2021/08/14 06:55:10;;;;;;;7.93;6.03;;;23.20;61.90;;;;;;5056891;28;20377;-33
2021/08/14 06:57:35;;;;;;;8.35;6.85;;;23.20;61.60;;;;;;5056479;28;20063;-34
2021/08/14 07:00:03;;;;;;;9.18;6.35;;;23.30;61.40;;;;;;5056993;28;20397;-36
2021/08/14 07:02:29;;;;;;;6.60;5.13;;;23.30;61.20;;;;;;5053049;28;20103;-36
2021/08/14 07:04:55;;;;;;;7.80;5.63;;;23.40;61.00;;;;;;5052655;28;20124;-37
2021/08/14 07:07:21;;;;;;;7.75;5.95;;;23.50;60.80;;;;;;5055872;28;20029;-37
2021/08/14 07:09:46;;;;;;;7.20;5.80;;;23.60;60.90;;;;;;5055663;28;20089;-38
2021/08/14 07:12:14;;;;;;;7.72;5.13;;;23.60;60.60;;;;;;5055630;28;20033;-38
2021/08/14 07:14:40;;;;;;;7.95;6.03;;;23.80;60.30;;;;;;5055544;28;20054;-33
2021/08/14 07:17:05;;;;;;;6.53;4.75;;;23.80;59.80;;;;;;5055704;28;20036;-33
2021/08/14 07:19:31;;;;;;;7.47;5.95;;;23.90;59.40;;;;;;5055541;28;20316;-34
2021/08/14 07:21:57;;;;;;;8.00;6.35;;;24.00;59.00;;;;;;5055729;28;20025;-37
2021/08/14 07:24:23;;;;;;;11.68;9.07;;;24.00;58.80;;;;;;5055355;28;20033;-33
2021/08/14 07:26:48;;;;;;;8.48;6.28;;;24.00;58.40;;;;;;5055200;28;20036;-39
2021/08/14 07:29:14;;;;;;;10.07;6.75;;;24.10;58.40;;;;;;5055173;28;20071;-35
2021/08/14 07:31:39;;;;;;;9.25;6.55;;;24.10;58.50;;;;;;5055195;28;20025;-34
2021/08/14 07:34:05;;;;;;;7.15;5.20;;;24.10;58.50;;;;;;5055390;28;20298;-38
2021/08/14 07:36:31;;;;;;;6.45;5.63;;;24.10;58.30;;;;;;5055556;28;20314;-45
2021/08/14 07:38:57;;;;;;;7.30;5.30;;;24.10;57.80;;;;;;5055521;28;20032;-34
2021/08/14 07:41:22;;;;;;;10.15;5.63;;;24.10;57.90;;;;;;5055534;28;20056;-37
2021/08/14 07:43:48;;;;;;;7.35;5.63;;;24.10;57.90;;;;;;5055266;28;20048;-37
2021/08/14 07:46:13;;;;;;;7.97;5.75;;;24.10;58.10;;;;;;5055448;28;20064;-37
2021/08/14 07:48:39;;;;;;;8.88;5.38;;;24.10;58.00;;;;;;5055417;28;20425;-34
2021/08/14 07:51:05;;;;;;;7.30;4.78;;;24.20;58.30;;;;;;5055755;28;20025;-34
2021/08/14 07:53:31;;;;;;;5.65;5.00;;;24.20;57.80;;;;;;5052583;28;20103;-37
2021/08/14 07:55:57;;;;;;;10.32;5.43;;;24.20;57.80;;;;;;5055382;28;20025;-34
2021/08/14 07:58:23;;;;;;;7.55;6.15;;;24.30;57.30;;;;;;5052228;28;20447;-33
2021/08/14 08:00:49;;;;;;;8.63;5.95;;;24.30;57.90;;;;;;5054696;28;20029;-37
2021/08/14 08:03:14;;;;;;;9.77;6.03;;;24.30;58.10;;;;;;5054690;28;20037;-34
2021/08/14 08:05:40;;;;;;;6.65;5.60;;;24.30;57.90;;;;;;5055188;28;20114;-37
2021/08/14 08:08:07;;;;;;;8.55;6.25;;;24.40;57.10;;;;;;5053366;28;20200;-37
2021/08/14 08:10:34;;;;;;;7.80;5.80;;;24.40;57.00;;;;;;5055146;28;20413;-38
2021/08/14 08:13:00;;;;;;;6.72;4.78;;;24.50;56.90;;;;;;5054529;28;20421;-34
2021/08/14 08:15:26;;;;;;;8.95;6.95;;;24.50;56.90;;;;;;5054395;28;20045;-35
2021/08/14 08:17:52;;;;;;;7.80;5.55;;;24.60;57.30;;;;;;5054470;28;20441;-35
2021/08/14 08:20:19;;;;;;;10.48;7.32;;;24.60;56.90;;;;;;5054981;28;20033;-35
2021/08/14 08:22:45;;;;;;;9.45;6.47;;;24.70;56.70;;;;;;5054355;28;20044;-34
2021/08/14 08:25:12;;;;;;;6.95;5.90;;;24.80;56.90;;;;;;5054916;28;20029;-34
2021/08/14 08:27:41;;;;;;;7.70;5.15;;;24.80;56.40;;;;;;5054694;28;20040;-34
2021/08/14 08:30:08;;;;;;;8.82;6.53;;;24.90;56.10;;;;;;5054896;28;20024;-34
2021/08/14 08:32:34;;;;;;;10.45;5.65;;;24.90;56.10;;;;;;5054673;28;20039;-34
2021/08/14 08:35:00;;;;;;;6.40;5.25;;;25.00;55.60;;;;;;5054858;28;20029;-38
2021/08/14 08:37:26;;;;;;;10.73;6.10;;;25.00;54.90;;;;;;5054473;28;20082;-34
2021/08/14 08:39:51;;;;;;;12.10;7.20;;;25.10;54.80;;;;;;5053856;28;20033;-39
2021/08/14 08:42:19;;;;;;;7.30;6.20;;;25.20;55.70;;;;;;5054103;28;20352;-41
2021/08/14 08:44:44;;;;;;;7.43;5.50;;;25.20;55.40;;;;;;5054933;28;20029;-36
2021/08/14 08:47:10;;;;;;;5.78;4.95;;;25.30;55.10;;;;;;5051964;28;20067;-44
2021/08/14 08:49:50;;;;;;;11.00;5.10;;;25.40;54.60;;;;;;5054460;28;20056;-44
2021/08/14 08:52:15;;;;;;;7.43;5.43;;;25.40;53.70;;;;;;5054063;28;20025;-44
2021/08/14 08:54:41;;;;;;;6.97;4.55;;;25.50;54.20;;;;;;5054490;28;20428;-43
2021/08/14 08:57:07;;;;;;;7.22;4.70;;;25.50;53.00;;;;;;5054177;28;20064;-38
2021/08/14 08:59:32;;;;;;;12.75;4.95;;;25.50;53.60;;;;;;5053880;28;20054;-38
2021/08/14 09:01:58;;;;;;;8.10;4.93;;;25.60;53.20;;;;;;5054190;28;20049;-39
2021/08/14 09:04:29;;;;;;;8.50;5.35;;;25.60;52.40;;;;;;5054075;28;20021;-39
2021/08/14 09:06:58;;;;;;;6.55;4.93;;;25.70;52.30;;;;;;5053986;28;20033;-40
2021/08/14 09:09:26;;;;;;;8.10;5.22;;;25.70;52.60;;;;;;5054266;28;20092;-40
2021/08/14 09:11:55;;;;;;;7.05;4.68;;;25.70;52.60;;;;;;5053747;28;20159;-40
2021/08/14 09:14:21;;;;;;;8.93;4.30;;;25.80;51.40;;;;;;5057852;28;20029;-39
2021/08/14 09:17:04;;;;;;;8.52;5.03;;;25.80;50.50;;;;;;5057446;28;20045;-44
2021/08/14 09:19:30;;;;;;;8.13;5.03;;;25.90;51.40;;;;;;5057908;28;20037;-44
2021/08/14 09:21:56;;;;;;;7.68;5.05;;;25.90;51.30;;;;;;5057556;28;20036;-39
2021/08/14 09:24:35;;;;;;;8.52;5.50;;;25.90;50.90;;;;;;5057554;28;20037;-44
2021/08/14 09:27:03;;;;;;;5.82;4.03;;;26.00;51.00;;;;;;5057306;28;20025;-37
2021/08/14 09:29:36;;;;;;;10.52;5.50;;;26.00;49.30;;;;;;5057468;28;20025;-41
2021/08/14 09:32:08;;;;;;;7.38;4.50;;;26.00;50.40;;;;;;5055771;28;20029;-40
2021/08/14 09:34:43;;;;;;;7.25;4.13;;;26.10;50.40;;;;;;5057495;28;20032;-41
2021/08/14 09:37:12;;;;;;;6.97;4.18;;;26.20;50.40;;;;;;5057401;28;20063;-46
2021/08/14 09:39:57;;;;;;;5.53;4.32;;;26.20;49.20;;;;;;5057347;28;20413;-43
2021/08/14 09:42:24;;;;;;;7.32;4.43;;;26.30;50.00;;;;;;5057339;28;20337;-41
2021/08/14 09:45:14;;;;;;;5.68;4.32;;;26.30;49.60;;;;;;5057129;28;20037;-39
2021/08/14 09:47:41;;;;;;;7.65;4.25;;;26.30;49.20;;;;;;5057555;28;20352;-45
2021/08/14 09:50:08;;;;;;;11.13;4.28;;;26.40;49.90;;;;;;5057958;28;20028;-41
2021/08/14 09:52:33;;;;;;;5.97;4.00;;;26.40;49.00;;;;;;5057416;28;20025;-41
2021/08/14 09:54:59;;;;;;;5.32;4.25;;;26.40;48.50;;;;;;5057865;28;20044;-38
2021/08/14 09:57:25;;;;;;;4.78;3.83;;;26.50;48.60;;;;;;5057270;28;20044;-38
2021/08/14 09:59:52;;;;;;;12.00;5.03;;;26.60;48.00;;;;;;5057788;28;20033;-44
2021/08/14 10:02:21;;;;;;;5.45;3.92;;;26.60;47.20;;;;;;5056958;28;20429;-46
2021/08/14 10:04:48;;;;;;;5.07;4.10;;;26.60;47.70;;;;;;5056951;28;20076;-41
2021/08/14 10:07:15;;;;;;;7.35;4.53;;;26.70;47.90;;;;;;5055510;28;20104;-46
2021/08/14 10:09:42;;;;;;;6.53;4.57;;;26.70;47.70;;;;;;5056795;28;20282;-41
2021/08/14 10:12:10;;;;;;;8.43;4.78;;;26.80;47.60;;;;;;5057380;28;20045;-42
2021/08/14 10:14:38;;;;;;;9.35;4.75;;;26.80;48.10;;;;;;5057339;28;20021;-40
2021/08/14 10:17:06;;;;;;;5.78;4.45;;;26.90;46.60;;;;;;5057258;28;20062;-46
2021/08/14 10:19:32;;;;;;;5.68;4.65;;;26.90;47.20;;;;;;5057434;28;20033;-46
2021/08/14 10:21:57;;;;;;;6.40;4.10;;;27.00;46.50;;;;;;5057041;28;20375;-41
2021/08/14 10:24:23;;;;;;;7.68;4.40;;;27.00;47.40;;;;;;5056047;28;20043;-43
2021/08/14 10:27:09;;;;;;;8.20;5.05;;;27.10;46.30;;;;;;5056881;28;20051;-45
2021/08/14 10:30:00;;;;;;;9.90;4.80;;;27.20;46.30;;;;;;5057244;28;20028;-45
2021/08/14 10:32:34;;;;;;;6.57;4.30;;;27.30;45.50;;;;;;5056870;28;20302;-46
2021/08/14 10:35:12;;;;;;;7.43;4.78;;;27.30;46.90;;;;;;5056837;28;20413;-41
2021/08/14 10:37:42;;;;;;;7.10;5.30;;;27.40;46.90;;;;;;5056845;28;20060;-46
2021/08/14 10:40:09;;;;;;;4.85;4.13;;;27.50;45.50;;;;;;5057000;28;20033;-46
2021/08/14 10:43:04;;;;;;;9.57;5.22;;;27.50;46.60;;;;;;5053709;28;20091;-46
2021/08/14 10:45:36;;;;;;;8.85;4.13;;;27.60;46.60;;;;;;5055713;28;20036;-46
2021/08/14 10:48:04;;;;;;;10.57;4.45;;;27.60;44.90;;;;;;5056468;28;20048;-46
2021/08/14 10:50:30;;;;;;;6.03;4.30;;;27.70;44.30;;;;;;5056649;28;20028;-41
2021/08/14 10:53:11;;;;;;;4.53;4.07;;;27.70;44.40;;;;;;5056186;28;20447;-40
2021/08/14 10:55:44;;;;;;;5.43;3.90;;;27.80;44.80;;;;;;5056109;28;20083;-46
2021/08/14 10:58:17;;;;;;;6.35;3.95;;;27.90;44.30;;;;;;5056009;28;20036;-46
2021/08/14 11:00:42;;;;;;;6.38;4.82;;;28.00;45.00;;;;;;5055170;28;20120;-46
2021/08/14 11:03:10;;;;;;;6.22;3.90;;;28.00;45.00;;;;;;5055938;28;20108;-41
2021/08/14 11:05:39;;;;;;;5.95;5.03;;;28.10;44.20;;;;;;5056426;28;20437;-46
2021/08/14 11:08:26;;;;;;;5.22;4.43;;;28.20;43.20;;;;;;5056180;28;20033;-46
2021/08/14 11:10:52;;;;;;;7.47;4.50;;;28.30;43.80;;;;;;5056449;28;20108;-46
2021/08/14 11:13:36;;;;;;;5.95;4.50;;;28.40;42.60;;;;;;5055588;28;20029;-46
2021/08/14 11:16:02;;;;;;;7.00;3.83;;;28.60;43.50;;;;;;5055883;28;20373;-46
2021/08/14 11:18:56;;;;;;;5.90;4.28;;;28.60;42.70;;;;;;5055521;28;20123;-42
2021/08/14 11:21:41;;;;;;;5.28;4.03;;;28.80;43.30;;;;;;5056383;28;20029;-46
2021/08/14 11:24:07;;;;;;;5.93;4.38;;;28.90;43.20;;;;;;5055651;28;20029;-45
2021/08/14 11:26:38;;;;;;;4.72;4.18;;;29.00;43.50;;;;;;5055788;28;20040;-40
2021/08/14 11:29:04;;;;;;;8.05;4.43;;;29.10;43.40;;;;;;5055717;28;20334;-39
2021/08/14 11:31:30;;;;;;;6.00;4.15;;;29.20;42.70;;;;;;5055850;28;20318;-45
2021/08/14 11:34:17;;;;;;;5.05;4.03;;;29.30;42.40;;;;;;5056040;28;20021;-45
2021/08/14 11:36:43;;;;;;;7.50;4.57;;;29.50;42.90;;;;;;5055398;28;20025;-44
2021/08/14 11:39:09;;;;;;;5.68;4.38;;;29.60;42.60;;;;;;5055575;28;20112;-45
2021/08/14 11:41:35;;;;;;;5.63;3.80;;;29.70;42.50;;;;;;5055489;28;20049;-39
2021/08/14 11:44:05;;;;;;;6.95;4.47;;;29.80;42.00;;;;;;5055167;28;20021;-44
2021/08/14 11:46:32;;;;;;;5.25;4.50;;;29.90;41.10;;;;;;5055466;28;20039;-40
2021/08/14 11:49:03;;;;;;;14.52;5.43;;;30.00;41.20;;;;;;5055593;28;20022;-44
2021/08/14 11:51:29;;;;;;;4.40;3.97;;;30.20;39.10;;;;;;5055708;28;20037;-44
2021/08/14 11:54:09;;;;;;;7.80;5.00;;;30.30;40.20;;;;;;5055880;28;20070;-34
2021/08/14 11:56:36;;;;;;;9.18;6.22;;;30.40;40.70;;;;;;5055457;28;20029;-38
2021/08/14 11:59:01;;;;;;;7.18;4.65;;;30.50;39.10;;;;;;5055826;28;20056;-34
2021/08/14 12:01:27;;;;;;;6.82;4.43;;;30.50;38.10;;;;;;5055472;28;20065;-38
2021/08/14 12:04:00;;;;;;;5.45;4.70;;;30.60;38.80;;;;;;5055225;28;20095;-33
2021/08/14 12:06:31;;;;;;;5.65;4.65;;;30.70;37.90;;;;;;5055763;28;20091;-37
2021/08/14 12:08:59;;;;;;;8.15;5.90;;;30.80;39.30;;;;;;5055726;28;20041;-38
2021/08/14 12:11:27;;;;;;;8.32;4.70;;;30.90;38.90;;;;;;5055875;28;20029;-34
2021/08/14 12:14:12;;;;;;;5.90;5.07;;;31.10;39.70;;;;;;5055370;28;20040;-34
2021/08/14 12:16:42;;;;;;;6.57;4.75;;;31.30;39.20;;;;;;5054997;28;20128;-34
2021/08/14 12:19:27;;;;;;;10.07;7.38;;;31.40;39.10;;;;;;5055372;28;20033;-37
2021/08/14 12:22:13;;;;;;;4.97;4.47;;;31.60;38.80;;;;;;5055516;28;20033;-37
2021/08/14 12:24:40;;;;;;;5.45;4.28;;;31.80;38.00;;;;;;5055463;28;20380;-37
2021/08/14 12:27:32;;;;;;;7.53;4.45;;;31.90;37.80;;;;;;5055211;28;20057;-37
2021/08/14 12:30:20;;;;;;;6.00;3.83;;;32.20;37.10;;;;;;5055747;28;20025;-37
2021/08/14 12:32:47;;;;;;;5.30;4.80;;;32.40;38.10;;;;;;5054946;28;20030;-38
2021/08/14 12:35:14;;;;;;;5.82;4.20;;;32.40;37.50;;;;;;5055242;28;20109;-34
2021/08/14 12:37:39;;;;;;;5.63;4.82;;;32.60;35.70;;;;;;5054983;28;20029;-34
2021/08/14 12:40:06;;;;;;;6.90;4.57;;;32.70;36.30;;;;;;5055412;28;20115;-34